createdAt,value
2019-03-17T00:01:16.684Z,5.07
2019-03-17T00:03:47.593Z,5.10
2019-03-17T00:06:18.568Z,5.11
2019-03-17T00:08:51.452Z,5.12
2019-03-17T00:11:22.311Z,5.11
2019-03-17T00:13:53.166Z,5.13
2019-03-17T00:16:24.058Z,5.11
2019-03-17T00:18:54.846Z,5.13
2019-03-17T00:21:25.662Z,5.04
2019-03-17T00:23:56.477Z,5.05
2019-03-17T00:26:27.280Z,5.10
2019-03-17T00:28:58.130Z,5.15
2019-03-17T00:31:30.074Z,5.10
2019-03-17T00:34:00.882Z,5.02
2019-03-17T00:36:31.722Z,4.99
2019-03-17T00:39:02.685Z,5.08
2019-03-17T00:41:33.584Z,5.04
2019-03-17T00:44:04.375Z,4.99
2019-03-17T00:46:35.219Z,5.11
2019-03-17T00:49:06.089Z,5.03
2019-03-17T00:51:36.971Z,4.96
2019-03-17T00:54:07.773Z,4.92
2019-03-17T00:56:38.607Z,4.97
2019-03-17T00:59:09.486Z,4.96
2019-03-17T01:01:40.399Z,4.90
2019-03-17T01:04:11.193Z,4.86
2019-03-17T01:06:42.085Z,4.86
2019-03-17T01:09:13.886Z,4.85
2019-03-17T01:11:44.807Z,4.85
2019-03-17T01:14:15.595Z,4.84
2019-03-17T01:16:46.492Z,4.85
2019-03-17T01:19:17.351Z,4.79
2019-03-17T01:21:48.259Z,4.81
2019-03-17T01:24:19.112Z,4.84
2019-03-17T01:26:49.942Z,4.73
2019-03-17T01:29:21.913Z,4.87
2019-03-17T01:31:52.771Z,4.75
2019-03-17T01:34:23.589Z,4.86
2019-03-17T01:36:54.455Z,4.83
2019-03-17T01:39:25.248Z,4.78
2019-03-17T01:41:56.040Z,4.78
2019-03-17T01:44:26.825Z,4.81
2019-03-17T01:46:57.659Z,4.71
2019-03-17T01:49:28.546Z,4.69
2019-03-17T01:51:59.375Z,4.70
2019-03-17T01:54:30.189Z,4.65
2019-03-17T01:57:01.004Z,4.63
2019-03-17T01:59:31.784Z,4.65
2019-03-17T02:02:03.715Z,4.71
2019-03-17T02:04:34.512Z,4.74
2019-03-17T02:07:05.358Z,4.74
2019-03-17T02:09:37.252Z,4.79
2019-03-17T02:12:08.088Z,4.72
2019-03-17T02:14:38.876Z,4.69
2019-03-17T02:17:09.776Z,4.71
2019-03-17T02:19:40.532Z,4.66
2019-03-17T02:22:11.355Z,4.67
2019-03-17T02:24:42.141Z,4.66
2019-03-17T02:27:13.012Z,4.72
2019-03-17T02:29:43.869Z,4.71
2019-03-17T02:32:14.717Z,4.67
2019-03-17T02:34:45.492Z,4.62
2019-03-17T02:37:16.312Z,4.63
2019-03-17T02:39:47.103Z,4.71
2019-03-17T02:42:17.947Z,4.68
2019-03-17T02:44:48.700Z,4.66
2019-03-17T02:47:19.542Z,4.68
2019-03-17T02:49:50.389Z,4.67
2019-03-17T02:52:21.215Z,4.65
2019-03-17T02:54:51.999Z,4.66
2019-03-17T02:57:22.897Z,4.66
2019-03-17T02:59:53.673Z,4.69
2019-03-17T03:02:25.572Z,4.72
2019-03-17T03:04:56.380Z,4.66
2019-03-17T03:07:27.240Z,4.63
2019-03-17T03:09:58.914Z,4.62
2019-03-17T03:12:29.738Z,4.64
2019-03-17T03:15:00.587Z,4.70
2019-03-17T03:17:31.520Z,4.59
2019-03-17T03:20:02.348Z,4.68
2019-03-17T03:22:33.369Z,4.65
2019-03-17T03:25:05.767Z,4.65
2019-03-17T03:27:36.590Z,4.61
2019-03-17T03:30:12.245Z,4.66
2019-03-17T03:32:43.187Z,4.72
2019-03-17T03:35:14.064Z,4.64
2019-03-17T03:37:44.914Z,4.56
2019-03-17T03:40:15.764Z,4.70
2019-03-17T03:42:46.617Z,4.73
2019-03-17T03:45:17.412Z,4.67
2019-03-17T03:47:48.303Z,4.64
2019-03-17T03:50:19.074Z,4.66
2019-03-17T03:52:49.892Z,4.62
2019-03-17T03:55:20.678Z,4.65
2019-03-17T03:57:51.503Z,4.62
2019-03-17T04:00:22.289Z,4.61
2019-03-17T04:02:53.211Z,4.63
2019-03-17T04:05:24.028Z,4.54
2019-03-17T04:07:54.898Z,4.60
2019-03-17T04:10:26.579Z,4.61
2019-03-17T04:12:57.489Z,4.61
2019-03-17T04:15:28.287Z,4.59
2019-03-17T04:17:59.170Z,4.63
2019-03-17T04:20:29.972Z,4.62
2019-03-17T04:23:00.778Z,4.64
2019-03-17T04:25:31.592Z,4.62
2019-03-17T04:28:02.408Z,4.65
2019-03-17T04:30:33.244Z,4.56
2019-03-17T04:33:04.148Z,4.61
2019-03-17T04:35:34.941Z,4.58
2019-03-17T04:38:05.774Z,4.54
2019-03-17T04:40:36.570Z,4.48
2019-03-17T04:43:07.401Z,4.53
2019-03-17T04:45:38.192Z,4.57
2019-03-17T04:48:21.315Z,4.52
2019-03-17T04:50:52.184Z,4.65
2019-03-17T04:53:23.023Z,4.57
2019-03-17T04:55:53.809Z,4.68
2019-03-17T04:58:24.659Z,4.70
2019-03-17T05:00:56.555Z,4.71
2019-03-17T05:03:27.474Z,4.65
2019-03-17T05:05:58.256Z,4.64
2019-03-17T05:08:29.175Z,4.70
2019-03-17T05:11:00.904Z,4.78
2019-03-17T05:13:31.910Z,4.72
2019-03-17T05:16:02.786Z,4.64
2019-03-17T05:18:33.667Z,4.68
2019-03-17T05:21:04.517Z,4.79
2019-03-17T05:23:35.346Z,4.72
2019-03-17T05:26:06.143Z,4.75
2019-03-17T05:28:38.085Z,4.72
2019-03-17T05:31:09.305Z,4.68
2019-03-17T05:33:40.108Z,4.76
2019-03-17T05:36:11.021Z,4.79
2019-03-17T05:38:42.012Z,4.81
2019-03-17T05:41:12.793Z,4.79
2019-03-17T05:43:43.707Z,4.86
2019-03-17T05:46:14.542Z,4.85
2019-03-17T05:48:45.443Z,4.80
2019-03-17T05:51:16.220Z,4.81
2019-03-17T05:53:47.080Z,4.78
2019-03-17T05:56:17.920Z,4.74
2019-03-17T05:58:48.784Z,4.74
2019-03-17T06:01:19.604Z,4.85
2019-03-17T06:03:50.480Z,4.76
2019-03-17T06:06:21.285Z,4.76
2019-03-17T06:08:52.185Z,4.83
2019-03-17T06:11:24.660Z,4.87
2019-03-17T06:13:55.476Z,4.85
2019-03-17T06:16:26.264Z,4.84
2019-03-17T06:18:57.282Z,4.80
2019-03-17T06:21:28.206Z,4.83
2019-03-17T06:23:59.024Z,4.91
2019-03-17T06:26:29.828Z,4.93
2019-03-17T06:29:00.669Z,4.96
2019-03-17T06:31:31.489Z,4.96
2019-03-17T06:34:02.425Z,4.98
2019-03-17T06:36:33.188Z,4.87
2019-03-17T06:39:05.789Z,4.86
2019-03-17T06:41:36.639Z,4.85
2019-03-17T06:44:07.449Z,4.90
2019-03-17T06:46:38.230Z,4.97
2019-03-17T06:49:09.095Z,4.97
2019-03-17T06:51:39.924Z,5.15
2019-03-17T06:54:10.830Z,5.15
2019-03-17T06:56:41.798Z,5.15
2019-03-17T06:59:12.709Z,5.33
2019-03-17T07:01:43.578Z,5.38
2019-03-17T07:04:14.477Z,5.43
2019-03-17T07:06:45.268Z,5.47
2019-03-17T07:09:18.009Z,5.64
2019-03-17T07:11:49.708Z,5.52
2019-03-17T07:14:20.732Z,5.62
2019-03-17T07:16:51.634Z,5.56
2019-03-17T07:19:22.788Z,5.73
2019-03-17T07:21:53.577Z,5.67
2019-03-17T07:24:24.422Z,5.62
2019-03-17T07:26:55.257Z,5.76
2019-03-17T07:29:26.251Z,5.77
2019-03-17T07:31:57.174Z,5.77
2019-03-17T07:34:28.206Z,5.83
2019-03-17T07:36:58.981Z,5.82
2019-03-17T07:39:29.982Z,5.92
2019-03-17T07:42:01.014Z,6.01
2019-03-17T07:44:32.625Z,6.12
2019-03-17T07:47:03.795Z,6.25
2019-03-17T07:49:34.796Z,6.25
2019-03-17T07:52:05.883Z,6.21
2019-03-17T07:54:36.919Z,6.01
2019-03-17T07:57:08.043Z,6.07
2019-03-17T07:59:39.000Z,6.02
2019-03-17T08:02:10.901Z,5.96
2019-03-17T08:04:46.044Z,6.00
2019-03-17T08:07:15.342Z,6.02
2019-03-17T08:09:46.228Z,6.21
2019-03-17T08:12:18.101Z,6.36
2019-03-17T08:14:49.071Z,6.32
2019-03-17T08:17:19.976Z,6.25
2019-03-17T08:19:51.008Z,6.27
2019-03-17T08:22:22.162Z,6.42
2019-03-17T08:24:53.294Z,6.45
2019-03-17T08:27:24.090Z,6.54
2019-03-17T08:29:55.026Z,6.76
2019-03-17T08:32:26.046Z,6.46
2019-03-17T08:34:57.561Z,6.43
2019-03-17T08:37:28.753Z,6.70
2019-03-17T08:40:00.367Z,6.66
2019-03-17T08:42:34.438Z,6.61
2019-03-17T08:45:07.717Z,6.41
2019-03-17T08:47:38.676Z,6.20
2019-03-17T08:50:11.490Z,6.42
2019-03-17T08:52:42.781Z,6.68
2019-03-17T08:55:13.855Z,6.95
2019-03-17T08:57:44.729Z,7.25
2019-03-17T09:00:23.413Z,6.98
2019-03-17T09:02:54.399Z,6.76
2019-03-17T09:05:25.245Z,6.70
2019-03-17T09:07:56.162Z,6.73
2019-03-17T09:10:27.236Z,6.63
2019-03-17T09:13:08.531Z,6.56
2019-03-17T09:15:44.195Z,6.56
2019-03-17T09:18:15.114Z,6.72
2019-03-17T09:20:50.279Z,6.81
2019-03-17T09:23:28.623Z,6.93
2019-03-17T09:25:59.643Z,7.08
2019-03-17T09:28:30.671Z,6.97
2019-03-17T09:31:07.306Z,6.95
2019-03-17T09:33:37.561Z,7.11
2019-03-17T09:36:10.659Z,7.00
2019-03-17T09:38:47.405Z,7.26
2019-03-17T09:41:18.787Z,7.28
2019-03-17T09:43:49.686Z,7.59
2019-03-17T09:46:20.771Z,7.81
2019-03-17T09:48:52.230Z,7.68
2019-03-17T09:51:23.210Z,7.96
2019-03-17T09:53:54.155Z,8.07
2019-03-17T09:56:25.930Z,8.23
2019-03-17T09:58:56.802Z,8.27
2019-03-17T10:01:29.060Z,8.05
2019-03-17T10:03:59.987Z,8.13
2019-03-17T10:06:31.043Z,8.07
2019-03-17T10:09:01.985Z,8.33
2019-03-17T10:11:34.126Z,8.63
2019-03-17T10:14:05.746Z,8.82
2019-03-17T10:16:36.596Z,8.88
2019-03-17T10:19:07.724Z,8.82
2019-03-17T10:21:38.698Z,8.66
2019-03-17T10:24:09.738Z,8.71
2019-03-17T10:26:40.832Z,8.79
2019-03-17T10:29:11.799Z,8.81
2019-03-17T10:31:42.756Z,9.17
2019-03-17T10:34:13.644Z,9.25
2019-03-17T10:36:44.611Z,9.52
2019-03-17T10:39:15.964Z,9.65
2019-03-17T10:41:46.960Z,9.14
2019-03-17T10:46:47.740Z,9.20
2019-03-17T10:49:18.641Z,9.43
2019-03-17T10:51:49.713Z,9.30
2019-03-17T10:54:20.721Z,9.39
2019-03-17T10:56:51.701Z,9.47
2019-03-17T10:59:22.731Z,9.62
2019-03-17T11:01:53.710Z,9.62
2019-03-17T11:04:24.746Z,9.68
2019-03-17T11:06:55.615Z,9.79
2019-03-17T11:09:26.494Z,9.85
2019-03-17T11:11:57.469Z,9.81
2019-03-17T11:14:29.158Z,9.79
2019-03-17T11:17:00.129Z,9.79
2019-03-17T11:19:31.007Z,9.87
2019-03-17T11:22:02.076Z,10.03
2019-03-17T11:24:32.952Z,10.08
2019-03-17T11:27:03.985Z,9.97
2019-03-17T11:29:34.892Z,9.76
2019-03-17T11:32:06.752Z,9.74
2019-03-17T11:34:37.853Z,10.12
2019-03-17T11:37:08.893Z,10.50
2019-03-17T11:39:39.822Z,10.57
2019-03-17T11:42:10.869Z,10.72
2019-03-17T11:44:41.854Z,10.53
2019-03-17T11:47:12.703Z,10.60
2019-03-17T11:49:46.054Z,10.62
2019-03-17T11:52:16.401Z,10.77
2019-03-17T11:54:47.465Z,10.70
2019-03-17T11:57:18.600Z,10.72
2019-03-17T11:59:49.659Z,10.85
2019-03-17T12:02:26.424Z,10.88
2019-03-17T12:04:53.328Z,11.00
2019-03-17T12:07:24.300Z,10.91
2019-03-17T12:09:55.319Z,10.87
2019-03-17T12:12:26.239Z,10.73
2019-03-17T12:14:57.978Z,10.81
2019-03-17T12:17:28.858Z,10.92
2019-03-17T12:19:59.844Z,10.93
2019-03-17T12:22:30.850Z,11.24
2019-03-17T12:25:01.762Z,11.04
2019-03-17T12:27:32.789Z,11.50
2019-03-17T12:30:06.003Z,11.60
2019-03-17T12:32:36.601Z,11.44
2019-03-17T12:35:07.478Z,11.26
2019-03-17T12:37:38.422Z,11.35
2019-03-17T12:40:09.442Z,11.18
2019-03-17T12:42:40.445Z,10.60
2019-03-17T12:45:11.669Z,10.46
2019-03-17T12:47:42.646Z,10.50
2019-03-17T12:50:21.946Z,11.07
2019-03-17T12:52:52.804Z,11.27
2019-03-17T12:55:23.733Z,11.21
2019-03-17T12:57:54.584Z,11.22
2019-03-17T13:00:27.680Z,10.95
2019-03-17T13:02:58.544Z,11.15
2019-03-17T13:05:29.449Z,10.99
2019-03-17T13:08:00.385Z,11.18
2019-03-17T13:10:31.548Z,11.31
2019-03-17T13:13:02.718Z,11.05
2019-03-17T13:15:34.495Z,11.20
2019-03-17T13:18:05.507Z,10.94
2019-03-17T13:20:36.277Z,11.19
2019-03-17T13:23:07.219Z,11.37
2019-03-17T13:25:38.383Z,11.62
2019-03-17T13:28:09.311Z,11.23
2019-03-17T13:30:40.428Z,11.39
2019-03-17T13:33:11.484Z,11.05
2019-03-17T13:35:43.309Z,11.03
2019-03-17T13:38:14.129Z,10.90
2019-03-17T13:40:44.938Z,10.61
2019-03-17T13:43:15.885Z,10.87
2019-03-17T13:45:46.842Z,11.11
2019-03-17T13:48:17.925Z,11.08
2019-03-17T13:50:48.727Z,10.95
2019-03-17T13:53:19.594Z,11.17
2019-03-17T13:55:50.535Z,11.02
2019-03-17T13:58:21.658Z,11.03
2019-03-17T14:00:52.937Z,10.94
2019-03-17T14:03:24.111Z,11.02
2019-03-17T14:05:55.288Z,10.83
2019-03-17T14:08:26.594Z,10.83
2019-03-17T14:10:57.681Z,10.77
2019-03-17T14:13:29.881Z,10.64
2019-03-17T14:16:01.741Z,10.67
2019-03-17T14:18:55.754Z,10.51
2019-03-17T14:21:11.755Z,10.40
2019-03-17T14:23:42.867Z,10.40
2019-03-17T14:26:14.100Z,10.55
2019-03-17T14:28:45.282Z,10.58
2019-03-17T14:31:19.303Z,10.73
2019-03-17T14:33:51.397Z,10.84
2019-03-17T14:36:32.958Z,10.81
2019-03-17T14:39:04.893Z,10.87
2019-03-17T14:41:43.656Z,11.18
2019-03-17T14:44:21.653Z,11.19
2019-03-17T14:46:56.896Z,11.21
2019-03-17T14:49:34.149Z,10.97
2019-03-17T14:52:15.162Z,10.67
2019-03-17T14:54:55.792Z,10.63
2019-03-17T14:57:46.364Z,10.64
2019-03-17T15:01:01.405Z,10.49
2019-03-17T15:03:41.247Z,10.56
2019-03-17T15:06:12.319Z,10.42
2019-03-17T15:08:43.283Z,10.36
2019-03-17T15:11:21.757Z,10.42
2019-03-17T15:13:55.823Z,10.36
2019-03-17T15:16:32.465Z,10.29
2019-03-17T15:19:07.925Z,10.26
2019-03-17T15:21:42.124Z,10.33
2019-03-17T15:24:14.809Z,10.29
2019-03-17T15:26:45.721Z,10.25
2019-03-17T15:29:16.684Z,10.28
2019-03-17T15:31:49.383Z,10.25
2019-03-17T15:34:23.551Z,10.12
2019-03-17T15:36:54.702Z,10.14
2019-03-17T15:39:27.248Z,10.10
2019-03-17T15:42:03.615Z,10.07
2019-03-17T15:44:35.142Z,9.99
2019-03-17T15:47:09.873Z,9.89
2019-03-17T15:49:41.117Z,9.88
2019-03-17T15:52:15.166Z,9.79
2019-03-17T15:54:48.085Z,9.69
2019-03-17T15:57:20.650Z,9.60
2019-03-17T15:59:53.257Z,9.60
2019-03-17T16:02:27.124Z,9.56
2019-03-17T16:05:02.213Z,9.44
2019-03-17T16:07:42.235Z,9.40
2019-03-17T16:10:09.171Z,9.32
2019-03-17T16:13:05.416Z,9.36
2019-03-17T16:15:40.242Z,9.29
2019-03-17T16:18:15.164Z,9.26
2019-03-17T16:20:48.327Z,9.17
2019-03-17T16:23:21.297Z,9.10
2019-03-17T16:25:54.218Z,9.05
2019-03-17T16:28:27.155Z,8.85
2019-03-17T16:31:01.084Z,8.81
2019-03-17T16:33:35.488Z,8.71
2019-03-17T16:36:08.117Z,8.56
2019-03-17T16:38:39.328Z,8.49
2019-03-17T16:41:12.337Z,8.46
2019-03-17T16:43:43.411Z,8.39
2019-03-17T16:46:15.402Z,8.30
2019-03-17T16:48:46.574Z,8.22
2019-03-17T16:51:17.651Z,8.16
2019-03-17T16:53:48.824Z,8.12
2019-03-17T16:56:19.752Z,7.93
2019-03-17T16:58:50.777Z,7.98
2019-03-17T17:01:21.829Z,7.86
2019-03-17T17:03:52.973Z,7.79
2019-03-17T17:06:24.174Z,7.72
2019-03-17T17:08:55.386Z,7.62
2019-03-17T17:11:26.392Z,7.61
2019-03-17T17:13:57.481Z,7.50
2019-03-17T17:16:29.709Z,7.44
2019-03-17T17:19:01.803Z,7.38
2019-03-17T17:21:32.719Z,7.30
2019-03-17T17:24:03.700Z,7.23
2019-03-17T17:26:37.640Z,7.27
2019-03-17T17:29:07.653Z,7.14
2019-03-17T17:31:38.709Z,7.08
2019-03-17T17:34:09.756Z,7.13
2019-03-17T17:36:40.759Z,7.13
2019-03-17T17:39:11.841Z,7.01
2019-03-17T17:41:42.767Z,6.96
2019-03-17T17:44:13.925Z,6.84
2019-03-17T17:46:44.988Z,6.81
2019-03-17T17:49:16.181Z,6.76
2019-03-17T17:51:47.325Z,6.82
2019-03-17T17:54:18.520Z,6.80
2019-03-17T17:56:49.747Z,6.70
2019-03-17T17:59:20.679Z,6.61
2019-03-17T18:01:51.719Z,6.55
2019-03-17T18:04:22.688Z,6.49
2019-03-17T18:06:53.617Z,6.50
2019-03-17T18:09:24.751Z,6.51
2019-03-17T18:11:55.840Z,6.42
2019-03-17T18:14:26.835Z,6.35
2019-03-17T18:16:57.767Z,6.21
2019-03-17T18:19:29.545Z,6.28
2019-03-17T18:22:00.643Z,6.23
2019-03-17T18:24:31.767Z,6.17
2019-03-17T18:27:02.824Z,6.09
2019-03-17T18:29:33.854Z,6.07
2019-03-17T18:32:05.745Z,6.06
2019-03-17T18:34:36.808Z,6.01
2019-03-17T18:37:07.852Z,5.96
2019-03-17T18:39:38.851Z,5.97
2019-03-17T18:42:09.904Z,6.11
2019-03-17T18:44:41.923Z,6.01
2019-03-17T18:47:13.064Z,5.93
2019-03-17T18:49:44.211Z,5.89
2019-03-17T18:52:16.873Z,5.82
2019-03-17T18:54:47.860Z,5.77
2019-03-17T18:57:22.118Z,5.75
2019-03-17T18:59:53.521Z,5.83
2019-03-17T19:02:24.608Z,5.78
2019-03-17T19:04:55.547Z,5.71
2019-03-17T19:07:26.473Z,5.61
2019-03-17T19:09:57.499Z,5.65
2019-03-17T19:12:28.424Z,5.67
2019-03-17T19:14:59.351Z,5.61
2019-03-17T19:17:30.290Z,5.54
2019-03-17T19:20:02.132Z,5.51
2019-03-17T19:22:33.120Z,5.47
2019-03-17T19:25:06.649Z,5.47
2019-03-17T19:27:37.642Z,5.38
2019-03-17T19:30:13.965Z,5.38
2019-03-17T19:32:45.562Z,5.32
2019-03-17T19:35:16.572Z,5.38
2019-03-17T19:37:47.565Z,5.42
2019-03-17T19:40:26.931Z,5.35
2019-03-17T19:43:03.933Z,5.22
2019-03-17T19:45:35.818Z,5.27
2019-03-17T19:48:07.169Z,5.08
2019-03-17T19:50:39.205Z,5.12
2019-03-17T19:53:17.008Z,5.11
2019-03-17T19:55:49.823Z,5.10
2019-03-17T19:58:20.885Z,5.10
2019-03-17T20:00:55.568Z,5.03
2019-03-17T20:03:30.689Z,5.00
2019-03-17T20:06:05.071Z,4.98
2019-03-17T20:08:38.684Z,4.94
2019-03-17T20:11:15.748Z,4.90
2019-03-17T20:13:46.732Z,4.92
2019-03-17T20:16:21.666Z,4.90
2019-03-17T20:18:52.704Z,4.91
2019-03-17T20:21:33.098Z,4.90
2019-03-17T20:24:10.906Z,4.85
2019-03-17T20:26:43.842Z,4.81
2019-03-17T20:29:17.941Z,4.81
2019-03-17T20:31:51.883Z,4.81
2019-03-17T20:34:27.328Z,4.83
2019-03-17T20:36:58.975Z,4.86
2019-03-17T20:39:30.972Z,4.87
2019-03-17T20:42:06.579Z,4.82
2019-03-17T20:44:42.361Z,4.76
2019-03-17T20:47:19.756Z,4.72
2019-03-17T20:49:52.467Z,4.65
2019-03-17T20:52:31.534Z,4.69
2019-03-17T20:55:10.964Z,4.73
2019-03-17T20:57:52.937Z,4.74
2019-03-17T21:00:24.008Z,4.71
2019-03-17T21:02:56.574Z,4.65
2019-03-17T21:05:31.969Z,4.70
2019-03-17T21:08:05.424Z,4.63
2019-03-17T21:10:37.318Z,4.63
2019-03-17T21:13:15.709Z,4.61
2019-03-17T21:15:47.576Z,4.61
2019-03-17T21:18:17.166Z,4.56
2019-03-17T21:20:48.154Z,4.58
2019-03-17T21:23:21.679Z,4.57
2019-03-17T21:25:52.151Z,4.46
2019-03-17T21:28:27.465Z,4.38
2019-03-17T21:30:57.584Z,4.40
2019-03-17T21:33:29.925Z,4.44
2019-03-17T21:36:02.595Z,4.36
2019-03-17T21:38:35.086Z,4.36
2019-03-17T21:41:09.239Z,4.27
2019-03-17T21:43:41.405Z,4.26
2019-03-17T21:46:15.574Z,4.22
2019-03-17T21:48:47.931Z,4.19
2019-03-17T21:51:18.911Z,4.17
2019-03-17T21:53:50.003Z,4.12
2019-03-17T21:56:20.965Z,4.14
2019-03-17T21:58:53.113Z,4.18
2019-03-17T22:01:24.055Z,4.14
2019-03-17T22:03:55.071Z,4.10
2019-03-17T22:06:26.100Z,4.01
2019-03-17T22:08:58.257Z,4.04
2019-03-17T22:11:29.292Z,3.94
2019-03-17T22:14:11.625Z,3.98
2019-03-17T22:16:33.023Z,3.97
2019-03-17T22:19:04.023Z,3.89
2019-03-17T22:21:34.998Z,3.92
2019-03-17T22:24:06.812Z,3.83
2019-03-17T22:26:37.955Z,3.87
2019-03-17T22:29:09.038Z,3.95
2019-03-17T22:31:40.110Z,3.91
2019-03-17T22:34:11.200Z,3.90
2019-03-17T22:36:42.196Z,3.85
2019-03-17T22:39:13.199Z,3.83
2019-03-17T22:41:45.373Z,3.85
2019-03-17T22:44:24.131Z,3.78
2019-03-17T22:46:48.955Z,3.76
2019-03-17T22:49:19.907Z,3.75
2019-03-17T22:51:50.803Z,3.79
2019-03-17T22:54:21.704Z,3.83
2019-03-17T22:56:52.618Z,3.75
2019-03-17T22:59:23.632Z,3.75
2019-03-17T23:01:54.645Z,3.73
2019-03-17T23:04:25.651Z,3.78
2019-03-17T23:06:57.178Z,3.79
2019-03-17T23:09:28.131Z,3.84
2019-03-17T23:11:59.127Z,3.85
2019-03-17T23:14:36.586Z,3.89
2019-03-17T23:17:03.044Z,3.92
2019-03-17T23:19:34.012Z,3.95
2019-03-17T23:22:04.988Z,4.01
2019-03-17T23:24:36.872Z,3.98
2019-03-17T23:27:09.564Z,3.95
2019-03-17T23:29:40.594Z,4.01
2019-03-17T23:32:12.149Z,3.92
2019-03-17T23:34:43.647Z,3.89
2019-03-17T23:37:18.724Z,3.87
2019-03-17T23:39:49.744Z,3.95
2019-03-17T23:42:22.515Z,3.84
2019-03-17T23:44:54.216Z,3.82
2019-03-17T23:47:28.014Z,3.78
2019-03-17T23:49:59.027Z,3.77
2019-03-17T23:52:30.261Z,3.78
2019-03-17T23:55:01.199Z,3.75
2019-03-17T23:57:33.541Z,3.71
